createdAt,value
2023-05-23T00:01:14.796Z,58.89
2023-05-23T00:03:44.469Z,59.57
2023-05-23T00:06:12.375Z,60.06
2023-05-23T00:08:40.151Z,58.70
2023-05-23T00:11:15.240Z,59.31
2023-05-23T00:13:42.589Z,58.80
2023-05-23T00:16:10.601Z,59.61
2023-05-23T00:18:38.589Z,60.16
2023-05-23T00:21:06.210Z,58.87
2023-05-23T00:23:34.139Z,59.38
2023-05-23T00:26:01.618Z,59.78
2023-05-23T00:28:29.393Z,59.85
2023-05-23T00:30:56.906Z,59.67
2023-05-23T00:33:24.749Z,59.48
2023-05-23T00:35:52.530Z,59.43
2023-05-23T00:38:20.182Z,59.53
2023-05-23T00:40:48.568Z,59.13
2023-05-23T00:43:16.531Z,59.35
2023-05-23T00:45:45.391Z,59.44
2023-05-23T00:48:13.093Z,59.48
2023-05-23T00:50:40.743Z,59.49
2023-05-23T00:53:08.493Z,59.45
2023-05-23T00:55:35.964Z,59.17
2023-05-23T00:58:04.026Z,59.29
2023-05-23T01:00:32.039Z,59.57
2023-05-23T01:02:59.675Z,59.43
2023-05-23T01:05:28.057Z,59.87
2023-05-23T01:07:56.196Z,59.53
2023-05-23T01:10:25.210Z,59.54
2023-05-23T01:12:52.652Z,58.95
2023-05-23T01:15:22.066Z,58.10
2023-05-23T01:18:00.287Z,59.25
2023-05-23T01:20:42.480Z,59.47
2023-05-23T01:23:12.839Z,59.89
2023-05-23T01:25:46.846Z,60.05
2023-05-23T01:28:15.701Z,60.17
2023-05-23T01:30:45.001Z,60.56
2023-05-23T01:33:13.389Z,60.29
2023-05-23T01:35:43.875Z,60.38
2023-05-23T01:38:11.841Z,59.99
2023-05-23T01:40:39.634Z,59.95
2023-05-23T01:43:10.255Z,60.66
2023-05-23T01:45:38.352Z,60.67
2023-05-23T01:48:06.388Z,60.47
2023-05-23T01:50:34.004Z,60.33
2023-05-23T01:53:04.955Z,60.29
2023-05-23T01:55:33.368Z,60.10
2023-05-23T01:58:00.772Z,60.27
2023-05-23T02:00:28.469Z,60.75
2023-05-23T02:02:56.147Z,59.09
2023-05-23T02:05:24.303Z,59.83
2023-05-23T02:08:01.967Z,60.84
2023-05-23T02:10:29.707Z,60.66
2023-05-23T02:12:57.021Z,61.07
2023-05-23T02:15:24.286Z,61.27
2023-05-23T02:17:52.226Z,61.03
2023-05-23T02:20:20.477Z,60.50
2023-05-23T02:22:48.884Z,60.83
2023-05-23T02:25:16.360Z,61.00
2023-05-23T02:27:43.657Z,61.28
2023-05-23T02:30:12.567Z,60.94
2023-05-23T02:32:40.281Z,60.70
2023-05-23T02:35:08.377Z,61.41
2023-05-23T02:37:36.593Z,61.08
2023-05-23T02:40:07.939Z,60.93
2023-05-23T02:42:36.443Z,60.75
2023-05-23T02:45:04.216Z,60.51
2023-05-23T02:47:32.543Z,60.88
2023-05-23T02:50:02.104Z,60.66
2023-05-23T02:52:32.430Z,60.78
2023-05-23T02:55:00.152Z,61.16
2023-05-23T02:57:28.625Z,61.05
2023-05-23T02:59:56.359Z,59.52
2023-05-23T03:02:26.195Z,60.50
2023-05-23T03:04:54.166Z,60.62
2023-05-23T03:07:28.213Z,60.86
2023-05-23T03:09:56.663Z,60.54
2023-05-23T03:12:25.324Z,60.71
2023-05-23T03:14:53.860Z,61.42
2023-05-23T03:17:21.994Z,61.05
2023-05-23T03:19:52.956Z,61.31
2023-05-23T03:22:20.889Z,61.36
2023-05-23T03:24:49.116Z,60.55
2023-05-23T03:27:16.545Z,60.24
2023-05-23T03:29:43.954Z,60.95
2023-05-23T03:32:11.808Z,61.66
2023-05-23T03:34:39.902Z,61.60
2023-05-23T03:37:08.537Z,61.69
2023-05-23T03:39:39.410Z,61.60
2023-05-23T03:42:07.318Z,61.79
2023-05-23T03:44:37.168Z,60.79
2023-05-23T03:47:07.072Z,61.73
2023-05-23T03:49:36.615Z,62.17
2023-05-23T03:52:05.134Z,61.28
2023-05-23T03:54:35.200Z,61.45
2023-05-23T03:57:03.180Z,61.41
2023-05-23T03:59:30.816Z,60.35
2023-05-23T04:02:01.053Z,61.10
2023-05-23T04:04:31.292Z,61.06
2023-05-23T04:06:59.891Z,61.78
2023-05-23T04:09:28.826Z,62.03
2023-05-23T04:11:57.334Z,61.54
2023-05-23T04:14:25.292Z,62.21
2023-05-23T04:16:53.165Z,62.25
2023-05-23T04:19:23.758Z,61.77
2023-05-23T04:21:52.302Z,60.88
2023-05-23T04:24:22.064Z,60.71
2023-05-23T04:26:50.503Z,61.93
2023-05-23T04:29:18.180Z,61.82
2023-05-23T04:31:46.825Z,62.11
2023-05-23T04:34:17.595Z,62.38
2023-05-23T04:36:46.181Z,62.08
2023-05-23T04:39:16.483Z,62.00
2023-05-23T04:41:46.326Z,61.91
2023-05-23T04:44:15.339Z,60.26
2023-05-23T04:46:43.213Z,59.96
2023-05-23T04:49:11.229Z,60.10
2023-05-23T04:51:39.396Z,60.54
2023-05-23T04:54:09.835Z,60.25
2023-05-23T04:56:39.152Z,58.85
2023-05-23T04:59:08.919Z,59.26
2023-05-23T05:01:40.825Z,59.61
2023-05-23T05:04:16.164Z,58.70
2023-05-23T05:06:48.729Z,58.32
2023-05-23T05:09:18.914Z,58.12
2023-05-23T05:11:47.988Z,56.94
2023-05-23T05:14:19.343Z,57.22
2023-05-23T05:16:50.428Z,58.20
2023-05-23T05:19:18.817Z,57.78
2023-05-23T05:21:47.197Z,55.70
2023-05-23T05:24:15.883Z,56.50
2023-05-23T05:26:43.783Z,56.47
2023-05-23T05:29:13.394Z,55.43
2023-05-23T05:31:43.670Z,55.14
2023-05-23T05:34:19.081Z,53.79
2023-05-23T05:36:50.504Z,54.15
2023-05-23T05:39:19.507Z,54.89
2023-05-23T05:41:46.993Z,54.66
2023-05-23T05:44:15.459Z,53.02
2023-05-23T05:46:44.683Z,52.65
2023-05-23T05:49:13.193Z,52.93
2023-05-23T05:51:42.139Z,52.66
2023-05-23T05:54:10.779Z,52.31
2023-05-23T05:56:40.008Z,52.28
2023-05-23T05:59:09.104Z,51.91
2023-05-23T06:01:39.497Z,52.09
2023-05-23T06:04:08.972Z,52.63
2023-05-23T06:06:37.173Z,52.12
2023-05-23T06:09:05.124Z,51.92
2023-05-23T06:11:35.137Z,51.36
2023-05-23T06:14:03.303Z,50.33
2023-05-23T06:16:32.996Z,50.23
2023-05-23T06:19:01.624Z,48.61
2023-05-23T06:21:29.692Z,47.68
2023-05-23T06:23:59.685Z,49.18
2023-05-23T06:26:27.691Z,49.69
2023-05-23T06:28:55.854Z,49.06
2023-05-23T06:31:24.170Z,48.42
2023-05-23T06:33:52.888Z,46.89
2023-05-23T06:36:20.476Z,46.66
2023-05-23T06:38:50.033Z,47.79
2023-05-23T06:41:18.730Z,47.61
2023-05-23T06:43:46.910Z,46.81
2023-05-23T06:46:17.046Z,46.48
2023-05-23T06:48:47.126Z,44.43
2023-05-23T06:51:19.235Z,43.84
2023-05-23T06:53:47.101Z,45.07
2023-05-23T06:56:15.703Z,44.90
2023-05-23T06:58:47.108Z,44.42
2023-05-23T07:01:18.609Z,46.82
2023-05-23T07:03:47.076Z,45.48
2023-05-23T07:06:17.006Z,45.72
2023-05-23T07:08:46.940Z,45.67
2023-05-23T07:11:16.319Z,44.80
2023-05-23T07:13:45.239Z,46.16
2023-05-23T07:16:14.499Z,44.18
2023-05-23T07:18:47.519Z,45.06
2023-05-23T07:21:16.418Z,43.88
2023-05-23T07:23:46.255Z,43.82
2023-05-23T07:26:14.246Z,45.22
2023-05-23T07:28:44.010Z,45.26
2023-05-23T07:31:13.676Z,44.21
2023-05-23T07:33:41.518Z,43.87
2023-05-23T07:36:10.874Z,44.64
2023-05-23T07:38:39.669Z,43.25
2023-05-23T07:41:12.039Z,42.90
2023-05-23T07:43:43.170Z,41.76
2023-05-23T07:46:11.329Z,41.78
2023-05-23T07:48:39.116Z,41.69
2023-05-23T07:51:11.032Z,41.94
2023-05-23T07:53:40.477Z,40.77
2023-05-23T07:56:10.034Z,41.03
2023-05-23T07:58:41.153Z,39.36
2023-05-23T08:01:09.164Z,39.73
2023-05-23T08:03:41.821Z,40.99
2023-05-23T08:06:09.901Z,40.41
2023-05-23T08:08:40.374Z,39.30
2023-05-23T08:11:09.519Z,39.90
2023-05-23T08:13:37.558Z,40.15
2023-05-23T08:16:09.900Z,39.71
2023-05-23T08:18:38.169Z,39.71
2023-05-23T08:21:10.249Z,38.68
2023-05-23T08:23:40.068Z,39.25
2023-05-23T08:26:08.097Z,37.84
2023-05-23T08:28:42.947Z,38.68
2023-05-23T08:31:11.713Z,37.86
2023-05-23T08:33:40.652Z,37.52
2023-05-23T08:36:16.346Z,38.82
2023-05-23T08:38:46.874Z,38.67
2023-05-23T08:41:21.210Z,39.49
2023-05-23T08:43:51.081Z,38.48
2023-05-23T08:46:23.235Z,36.86
2023-05-23T08:48:51.938Z,37.97
2023-05-23T08:51:24.194Z,37.40
2023-05-23T08:53:53.738Z,38.02
2023-05-23T08:56:22.368Z,37.43
2023-05-23T08:58:53.323Z,37.23
2023-05-23T09:01:21.884Z,37.14
2023-05-23T09:03:52.113Z,36.27
2023-05-23T09:06:21.484Z,35.66
2023-05-23T09:08:49.353Z,36.65
2023-05-23T09:11:17.542Z,36.82
2023-05-23T09:13:49.020Z,35.33
2023-05-23T09:16:20.743Z,35.56
2023-05-23T09:18:49.161Z,38.34
2023-05-23T09:21:18.197Z,36.77
2023-05-23T09:23:47.178Z,34.58
2023-05-23T09:26:14.935Z,34.23
2023-05-23T09:28:47.321Z,33.90
2023-05-23T09:31:16.687Z,34.16
2023-05-23T09:33:48.791Z,34.38
2023-05-23T09:36:17.735Z,34.29
2023-05-23T09:38:47.082Z,34.62
2023-05-23T09:41:15.030Z,33.79
2023-05-23T09:43:52.682Z,34.37
2023-05-23T09:46:28.836Z,34.31
2023-05-23T09:48:58.022Z,34.40
2023-05-23T09:51:25.991Z,34.44
2023-05-23T09:53:54.512Z,34.25
2023-05-23T09:56:32.797Z,35.27
2023-05-23T09:59:01.953Z,35.03
2023-05-23T10:01:29.505Z,34.93
2023-05-23T10:04:00.555Z,34.51
2023-05-23T10:06:31.748Z,34.38
2023-05-23T10:09:02.207Z,33.72
2023-05-23T10:11:33.562Z,33.66
2023-05-23T10:14:09.756Z,34.88
2023-05-23T10:16:37.417Z,33.74
2023-05-23T10:19:08.260Z,31.67
2023-05-23T10:21:38.769Z,31.83
2023-05-23T10:24:07.397Z,33.49
2023-05-23T10:26:35.233Z,34.08
2023-05-23T10:29:03.534Z,34.00
2023-05-23T10:31:32.545Z,33.87
2023-05-23T10:34:25.219Z,33.28
2023-05-23T10:36:58.069Z,34.00
2023-05-23T10:39:34.182Z,33.68
2023-05-23T10:42:03.502Z,33.05
2023-05-23T10:44:33.371Z,34.18
2023-05-23T10:47:03.241Z,34.36
2023-05-23T10:49:41.780Z,32.67
2023-05-23T10:52:11.332Z,32.11
2023-05-23T10:54:45.241Z,33.27
2023-05-23T10:57:16.869Z,34.64
2023-05-23T10:59:45.631Z,34.68
2023-05-23T11:02:14.771Z,35.59
2023-05-23T11:04:44.996Z,35.84
2023-05-23T11:07:32.794Z,33.96
2023-05-23T11:10:11.485Z,35.31
2023-05-23T11:12:40.644Z,34.94
2023-05-23T11:15:17.727Z,34.18
2023-05-23T11:17:57.538Z,34.23
2023-05-23T11:20:39.040Z,33.90
2023-05-23T11:23:08.525Z,33.44
2023-05-23T11:25:43.203Z,32.64
2023-05-23T11:28:13.081Z,31.00
2023-05-23T11:30:44.410Z,30.41
2023-05-23T11:33:20.001Z,28.57
2023-05-23T11:35:51.893Z,28.15
2023-05-23T11:38:25.323Z,28.52
2023-05-23T11:40:52.754Z,29.06
2023-05-23T11:43:26.353Z,28.70
2023-05-23T11:45:55.025Z,29.54
2023-05-23T11:48:24.260Z,28.39
2023-05-23T11:50:53.120Z,28.20
2023-05-23T11:53:22.249Z,28.98
2023-05-23T11:55:59.270Z,28.49
2023-05-23T11:58:30.090Z,28.53
2023-05-23T12:01:02.086Z,28.98
2023-05-23T12:03:31.981Z,29.78
2023-05-23T12:06:02.022Z,29.86
2023-05-23T12:08:31.532Z,29.28
2023-05-23T12:11:01.341Z,29.63
2023-05-23T12:13:30.442Z,29.65
2023-05-23T12:16:03.042Z,29.08
2023-05-23T12:18:31.922Z,27.50
2023-05-23T12:21:03.795Z,28.50
2023-05-23T12:23:34.752Z,27.68
2023-05-23T12:26:11.155Z,28.46
2023-05-23T12:28:45.172Z,28.57
2023-05-23T12:31:14.126Z,28.88
2023-05-23T12:33:46.223Z,27.23
2023-05-23T12:36:25.355Z,27.22
2023-05-23T12:41:30.756Z,28.44
2023-05-23T12:44:00.250Z,28.65
2023-05-23T12:46:29.185Z,28.24
2023-05-23T12:49:01.413Z,28.47
2023-05-23T12:51:32.556Z,29.71
2023-05-23T12:54:03.257Z,27.66
2023-05-23T12:56:32.631Z,27.92
2023-05-23T12:59:09.125Z,27.65
2023-05-23T13:01:38.904Z,25.80
2023-05-23T13:04:08.461Z,26.17
2023-05-23T13:06:36.627Z,26.98
2023-05-23T13:09:05.898Z,29.36
2023-05-23T13:11:35.603Z,28.09
2023-05-23T13:14:09.252Z,28.44
2023-05-23T13:16:42.202Z,26.92
2023-05-23T13:19:17.108Z,27.16
2023-05-23T13:21:49.952Z,25.89
2023-05-23T13:24:19.434Z,25.60
2023-05-23T13:26:53.317Z,26.76
2023-05-23T13:29:21.619Z,25.36
2023-05-23T13:31:49.828Z,24.61
2023-05-23T13:34:18.169Z,25.32
2023-05-23T13:36:50.512Z,25.43
2023-05-23T13:39:21.141Z,24.84
2023-05-23T13:41:51.189Z,25.55
2023-05-23T13:44:19.670Z,23.05
2023-05-23T13:46:47.552Z,22.46
2023-05-23T13:49:19.011Z,23.36
2023-05-23T13:51:48.121Z,24.11
2023-05-23T13:54:16.310Z,24.57
2023-05-23T13:56:44.774Z,25.33
2023-05-23T13:59:14.122Z,25.09
2023-05-23T14:01:42.343Z,26.57
2023-05-23T14:04:10.328Z,25.12
2023-05-23T14:06:38.393Z,26.13
2023-05-23T14:09:06.817Z,27.01
2023-05-23T14:11:36.124Z,26.63
2023-05-23T14:14:04.261Z,25.06
2023-05-23T14:16:33.625Z,24.50
2023-05-23T14:19:01.792Z,25.32
2023-05-23T14:21:36.660Z,25.10
2023-05-23T14:24:08.180Z,26.95
2023-05-23T14:26:38.185Z,26.98
2023-05-23T14:29:07.972Z,28.23
2023-05-23T14:31:39.436Z,26.86
2023-05-23T14:34:10.276Z,27.54
2023-05-23T14:36:39.280Z,27.91
2023-05-23T14:39:10.644Z,26.55
2023-05-23T14:41:41.945Z,27.24
2023-05-23T14:44:10.432Z,27.23
2023-05-23T14:46:42.333Z,28.01
2023-05-23T14:49:11.648Z,28.27
2023-05-23T14:54:10.371Z,27.19
2023-05-23T14:56:41.377Z,27.62
2023-05-23T14:59:16.325Z,27.30
2023-05-23T15:01:52.192Z,27.70
2023-05-23T15:04:20.206Z,27.65
2023-05-23T15:06:48.691Z,27.89
2023-05-23T15:09:19.102Z,28.08
2023-05-23T15:11:50.344Z,28.41
2023-05-23T15:14:17.911Z,27.62
2023-05-23T15:16:49.266Z,28.13
2023-05-23T15:19:20.185Z,28.16
2023-05-23T15:21:54.146Z,28.90
2023-05-23T15:24:22.709Z,29.41
2023-05-23T15:26:53.469Z,28.94
2023-05-23T15:29:25.412Z,28.78
2023-05-23T15:31:54.002Z,29.01
2023-05-23T15:34:27.192Z,29.05
2023-05-23T15:36:57.140Z,28.02
2023-05-23T15:39:35.154Z,29.11
2023-05-23T15:42:08.821Z,28.92
2023-05-23T15:44:37.748Z,28.51
2023-05-23T15:47:08.555Z,27.82
2023-05-23T15:49:40.558Z,28.35
2023-05-23T15:52:09.776Z,28.82
2023-05-23T15:54:38.636Z,28.57
2023-05-23T15:57:07.172Z,29.00
2023-05-23T15:59:36.585Z,28.64
2023-05-23T16:02:10.515Z,28.80
2023-05-23T16:04:39.118Z,28.60
2023-05-23T16:07:06.866Z,28.11
2023-05-23T16:09:35.328Z,28.69
2023-05-23T16:12:09.954Z,28.40
2023-05-23T16:14:39.169Z,29.16
2023-05-23T16:17:13.166Z,28.52
2023-05-23T16:19:43.357Z,28.28
2023-05-23T16:22:15.135Z,29.18
2023-05-23T16:24:47.266Z,30.18
2023-05-23T16:27:16.503Z,29.87
2023-05-23T16:29:47.210Z,30.07
2023-05-23T16:32:17.293Z,29.80
2023-05-23T16:34:52.685Z,29.02
2023-05-23T16:37:26.556Z,29.08
2023-05-23T16:40:04.348Z,29.33
2023-05-23T16:42:38.754Z,29.87
2023-05-23T16:45:08.356Z,30.58
2023-05-23T16:47:39.474Z,30.17
2023-05-23T16:50:08.791Z,30.77
2023-05-23T16:55:13.990Z,30.56
2023-05-23T16:57:43.410Z,31.46
2023-05-23T17:00:12.538Z,31.49
2023-05-23T17:02:40.732Z,31.62
2023-05-23T17:05:18.306Z,31.68
2023-05-23T17:07:51.079Z,31.64
2023-05-23T17:10:23.129Z,32.50
2023-05-23T17:12:58.139Z,31.93
2023-05-23T17:18:09.122Z,31.71
2023-05-23T17:20:37.223Z,32.96
2023-05-23T17:23:08.144Z,36.47
2023-05-23T17:25:37.176Z,40.08
2023-05-23T17:28:07.493Z,40.16
2023-05-23T17:30:47.203Z,40.95
2023-05-23T17:33:19.372Z,42.66
2023-05-23T17:35:53.250Z,45.51
2023-05-23T17:38:22.150Z,45.61
2023-05-23T17:40:53.000Z,47.07
2023-05-23T17:43:24.713Z,47.94
2023-05-23T17:48:46.458Z,48.74
2023-05-23T17:51:18.784Z,50.11
2023-05-23T17:53:53.578Z,50.36
2023-05-23T17:56:25.042Z,49.89
2023-05-23T17:58:55.283Z,52.49
2023-05-23T18:01:28.424Z,50.34
2023-05-23T18:04:04.565Z,50.40
2023-05-23T18:06:38.195Z,50.68
2023-05-23T18:09:14.248Z,52.54
2023-05-23T18:11:47.727Z,53.16
2023-05-23T18:14:23.149Z,53.75
2023-05-23T18:16:55.361Z,52.62
2023-05-23T18:19:31.296Z,53.75
2023-05-23T18:22:02.209Z,55.44
2023-05-23T18:24:37.262Z,55.25
2023-05-23T18:27:05.883Z,56.72
2023-05-23T18:29:42.283Z,57.91
2023-05-23T18:32:18.209Z,57.07
2023-05-23T18:34:47.411Z,59.25
2023-05-23T18:37:23.333Z,60.99
2023-05-23T18:39:59.174Z,59.90
2023-05-23T18:42:30.201Z,59.77
2023-05-23T18:45:00.259Z,60.53
2023-05-23T18:47:32.181Z,58.86
2023-05-23T18:50:13.122Z,60.51
2023-05-23T18:55:27.203Z,59.17
2023-05-23T18:57:55.286Z,58.28
2023-05-23T19:00:32.205Z,58.81
2023-05-23T19:03:08.777Z,59.23
2023-05-23T19:08:10.180Z,55.51
2023-05-23T19:10:38.277Z,54.64
2023-05-23T19:13:09.452Z,53.25
2023-05-23T19:15:37.645Z,54.48
2023-05-23T19:18:09.336Z,52.83
2023-05-23T19:20:40.303Z,53.28
2023-05-23T19:23:15.373Z,52.22
2023-05-23T19:25:47.593Z,51.89
2023-05-23T19:28:21.421Z,53.29
2023-05-23T19:30:50.265Z,53.52
2023-05-23T19:33:19.504Z,53.60
2023-05-23T19:35:49.440Z,52.66
2023-05-23T19:38:18.945Z,53.19
2023-05-23T19:40:47.754Z,53.23
2023-05-23T19:43:17.278Z,53.28
2023-05-23T19:45:46.377Z,52.88
2023-05-23T19:48:16.379Z,51.63
2023-05-23T19:50:53.177Z,52.36
2023-05-23T19:53:24.420Z,54.61
2023-05-23T19:55:54.331Z,55.14
2023-05-23T19:58:27.181Z,54.30
2023-05-23T20:00:59.653Z,53.36
2023-05-23T20:03:34.206Z,53.63
2023-05-23T20:06:01.983Z,54.39
2023-05-23T20:08:37.628Z,53.72
2023-05-23T20:11:07.694Z,53.72
2023-05-23T20:13:37.754Z,53.17
2023-05-23T20:16:08.652Z,53.31
2023-05-23T20:18:39.385Z,52.80
2023-05-23T20:21:07.194Z,53.32
2023-05-23T20:23:34.477Z,54.02
2023-05-23T20:26:03.661Z,54.10
2023-05-23T20:28:33.285Z,53.65
2023-05-23T20:31:04.313Z,54.55
2023-05-23T20:33:38.251Z,53.66
2023-05-23T20:36:06.865Z,54.81
2023-05-23T20:38:36.406Z,54.37
2023-05-23T20:41:07.171Z,54.40
2023-05-23T20:43:39.717Z,54.76
2023-05-23T20:46:09.252Z,55.17
2023-05-23T20:48:39.522Z,52.76
2023-05-23T20:51:08.252Z,52.91
2023-05-23T20:53:37.444Z,52.53
2023-05-23T20:56:05.837Z,54.21
2023-05-23T20:58:37.074Z,54.67
2023-05-23T21:01:05.648Z,54.76
2023-05-23T21:03:35.812Z,54.39
2023-05-23T21:06:03.900Z,54.03
2023-05-23T21:08:34.714Z,53.66
2023-05-23T21:11:02.978Z,53.46
2023-05-23T21:13:31.107Z,53.19
2023-05-23T21:15:59.251Z,53.23
2023-05-23T21:18:27.450Z,53.45
2023-05-23T21:20:55.416Z,53.29
2023-05-23T21:23:23.913Z,54.05
2023-05-23T21:25:56.478Z,54.25
2023-05-23T21:28:26.760Z,54.37
2023-05-23T21:30:55.529Z,54.37
2023-05-23T21:33:24.067Z,54.19
2023-05-23T21:35:58.116Z,54.41
2023-05-23T21:38:29.713Z,54.05
2023-05-23T21:40:59.133Z,54.04
2023-05-23T21:43:27.553Z,54.08
2023-05-23T21:45:56.172Z,54.88
2023-05-23T21:48:25.400Z,55.37
2023-05-23T21:50:53.144Z,55.41
2023-05-23T21:53:21.369Z,55.91
2023-05-23T21:55:51.127Z,56.12
2023-05-23T21:58:18.856Z,56.44
2023-05-23T22:00:47.381Z,56.76
2023-05-23T22:03:16.109Z,56.93
2023-05-23T22:05:45.248Z,57.41
2023-05-23T22:08:13.001Z,57.83
2023-05-23T22:10:43.053Z,57.66
2023-05-23T22:13:10.866Z,57.62
2023-05-23T22:15:39.193Z,57.63
2023-05-23T22:18:07.544Z,56.93
2023-05-23T22:20:38.886Z,57.09
2023-05-23T22:23:09.944Z,57.20
2023-05-23T22:25:39.051Z,57.71
2023-05-23T22:28:07.299Z,58.23
2023-05-23T22:30:35.922Z,58.49
2023-05-23T22:33:03.555Z,58.45
2023-05-23T22:35:32.163Z,58.40
2023-05-23T22:38:00.058Z,58.61
2023-05-23T22:40:27.336Z,58.46
2023-05-23T22:42:55.306Z,58.34
2023-05-23T22:45:23.047Z,58.42
2023-05-23T22:47:53.991Z,58.16
2023-05-23T22:50:22.650Z,58.42
2023-05-23T22:52:50.732Z,58.33
2023-05-23T22:55:19.242Z,58.16
2023-05-23T22:57:46.981Z,58.21
2023-05-23T23:00:14.908Z,58.25
2023-05-23T23:02:44.554Z,58.66
2023-05-23T23:05:12.758Z,58.90
2023-05-23T23:07:41.185Z,58.15
2023-05-23T23:10:10.021Z,58.61
2023-05-23T23:12:37.585Z,58.91
2023-05-23T23:15:05.875Z,58.55
2023-05-23T23:17:33.879Z,58.79
2023-05-23T23:20:02.255Z,58.53
2023-05-23T23:22:31.656Z,59.11
2023-05-23T23:24:59.066Z,59.45
2023-05-23T23:27:30.873Z,59.73
2023-05-23T23:29:59.225Z,59.78
2023-05-23T23:32:27.178Z,60.14
2023-05-23T23:34:54.897Z,60.05
2023-05-23T23:37:22.759Z,59.85
2023-05-23T23:39:50.211Z,59.70
2023-05-23T23:42:17.922Z,59.77
2023-05-23T23:44:45.653Z,59.58
2023-05-23T23:47:12.943Z,59.26
2023-05-23T23:49:41.803Z,59.51
2023-05-23T23:52:09.575Z,60.04
2023-05-23T23:54:37.350Z,59.50
2023-05-23T23:57:06.681Z,59.97
2023-05-23T23:59:36.336Z,61.07
